Marataizes, Brazil
Current Conditions -  °F | °C
As of 8:00 PM on Tuesday 21 Oct 2014 (Local Time) from SBCP Reporting Station
Overcast Overcast  
Wind Chill: 72°   Ceiling: 9000
Heat Index: 72°   Visibility: 6mi
Dew Point: 64°   Wind: 7mph
Humidity: 78%   Direction: 180°S
Pressure: 30.12"   Gusts: NA
Location:  21.03°S, 40.84°W
Report Text: SBCP 212200Z 18006KT 9999 FEW020 OVC090 22/18 Q1020
Loading
Personal Weather Stations






























Interactive Weather Map
Tropical Storm Tracking
New forecast layout! Learn more

10-Day Weather Forecast

Advertisements
Track Severe Weather on mobile